Time;durP1;ratioP1;P1;durP2;ratioP2;P2;SDS_P1;SDS_P2;PMS_P1;PMS_P2;Temp;Humidity;BMP_temperature;BMP_pressure;BME280_temperature;BME280_humidity;BME280_pressure;Samples;Min_cycle;Max_cycle;Signal;HPM_P1;HPM_P2
2022/09/09 00:01:30;;;;;;;23.13;10.50;;;13.60;99.90;;;;;;4955062;29;20058;-75
2022/09/09 00:04:20;;;;;;;35.15;10.43;;;13.60;99.90;;;;;;4950269;29;20059;-76
2022/09/09 00:07:13;;;;;;;32.00;10.40;;;13.50;99.90;;;;;;4955102;29;20103;-75
2022/09/09 00:09:54;;;;;;;26.60;9.90;;;13.50;99.90;;;;;;4954608;28;20133;-75
2022/09/09 00:12:43;;;;;;;26.20;10.32;;;13.40;99.90;;;;;;4954126;29;20503;-75
2022/09/09 00:15:26;;;;;;;27.60;10.80;;;13.50;99.90;;;;;;4922041;29;20055;-81
2022/09/09 00:18:01;;;;;;;30.65;9.77;;;13.50;99.90;;;;;;4954232;29;20058;-78
2022/09/09 00:20:38;;;;;;;27.05;9.55;;;13.50;99.90;;;;;;4954198;29;20051;-76
2022/09/09 00:23:19;;;;;;;28.55;10.02;;;13.50;99.90;;;;;;4955130;29;20055;-75
2022/09/09 00:26:06;;;;;;;26.88;9.45;;;13.50;99.90;;;;;;4937298;29;20047;-76
2022/09/09 00:28:39;;;;;;;28.95;9.88;;;13.50;99.90;;;;;;4953999;29;20198;-77
2022/09/09 00:31:13;;;;;;;21.95;8.90;;;13.50;99.90;;;;;;4954657;29;20113;-85
2022/09/09 00:33:41;;;;;;;23.98;10.10;;;13.60;99.90;;;;;;4954483;29;20048;-76
2022/09/09 00:36:17;;;;;;;27.45;9.27;;;13.60;99.90;;;;;;4937435;29;20058;-76
2022/09/09 00:38:49;;;;;;;20.38;8.63;;;13.70;99.90;;;;;;4954853;29;20057;-76
2022/09/09 00:41:36;;;;;;;27.55;9.30;;;13.70;99.90;;;;;;4954340;29;20047;-78
2022/09/09 00:44:26;;;;;;;23.45;9.10;;;13.80;99.90;;;;;;4937275;29;20058;-77
2022/09/09 00:47:11;;;;;;;25.52;8.93;;;13.80;99.90;;;;;;4922109;29;20054;-75
2022/09/09 00:49:51;;;;;;;23.58;8.45;;;13.90;99.90;;;;;;4937642;29;20055;-76
2022/09/09 00:52:51;;;;;;;24.35;8.05;;;14.00;99.90;;;;;;4955044;28;20043;-75
2022/09/09 00:55:21;;;;;;;23.33;8.68;;;14.00;99.90;;;;;;4957945;29;20055;-76
2022/09/09 00:57:52;;;;;;;22.90;8.57;;;14.00;99.90;;;;;;4925130;29;20051;-76
2022/09/09 01:00:20;;;;;;;24.40;9.02;;;14.10;99.90;;;;;;4958294;29;20055;-75
2022/09/09 01:03:01;;;;;;;32.85;9.70;;;14.10;99.90;;;;;;4957629;29;20113;-75
2022/09/09 01:05:36;;;;;;;24.38;10.02;;;14.10;99.90;;;;;;4957876;28;20580;-75
2022/09/09 01:08:09;;;;;;;29.48;8.98;;;14.10;99.90;;;;;;4940939;28;20484;-75
2022/09/09 01:10:45;;;;;;;24.30;8.40;;;14.20;99.90;;;;;;4957732;29;20054;-74
2022/09/09 01:13:33;;;;;;;22.77;8.68;;;14.20;99.90;;;;;;4939776;29;20055;-86
2022/09/09 01:16:05;;;;;;;28.75;7.75;;;14.30;99.90;;;;;;4940834;29;20518;-74
2022/09/09 01:18:44;;;;;;;26.63;7.72;;;14.30;99.90;;;;;;4924356;29;20515;-79
2022/09/09 01:21:16;;;;;;;28.17;8.90;;;14.40;99.90;;;;;;4940871;29;20048;-74
2022/09/09 01:24:08;;;;;;;25.48;8.07;;;14.40;99.90;;;;;;4940480;29;20054;-78
2022/09/09 01:26:45;;;;;;;26.27;8.30;;;14.50;99.90;;;;;;4924525;29;20440;-76
2022/09/09 01:29:15;;;;;;;28.40;9.45;;;14.50;99.90;;;;;;4957383;29;20495;-77
2022/09/09 01:32:16;;;;;;;28.15;10.23;;;14.40;99.90;;;;;;4939983;29;20051;-78
2022/09/09 01:34:42;;;;;;;28.08;9.90;;;14.40;99.90;;;;;;4957327;29;20093;-77
2022/09/09 01:37:10;;;;;;;27.90;9.93;;;14.40;99.90;;;;;;4923694;29;20396;-76
2022/09/09 01:39:38;;;;;;;29.30;10.48;;;14.40;99.90;;;;;;4924252;29;20215;-76
2022/09/09 01:42:08;;;;;;;25.00;10.45;;;14.40;99.90;;;;;;4956859;28;20126;-76
2022/09/09 01:44:35;;;;;;;29.15;10.55;;;14.50;99.90;;;;;;4939672;29;20043;-81
2022/09/09 01:47:01;;;;;;;25.73;9.20;;;14.50;99.90;;;;;;4956601;29;20080;-78
2022/09/09 01:49:27;;;;;;;27.42;10.93;;;14.40;99.90;;;;;;4939616;29;20098;-76
2022/09/09 01:51:55;;;;;;;26.40;10.18;;;14.40;99.90;;;;;;4923612;29;20141;-76
2022/09/09 01:54:25;;;;;;;31.00;10.23;;;14.40;99.90;;;;;;4956758;29;20043;-77
2022/09/09 01:57:20;;;;;;;34.00;9.93;;;14.40;99.90;;;;;;4956845;29;20488;-77
2022/09/09 02:00:16;;;;;;;35.25;10.52;;;14.40;99.90;;;;;;4939503;29;20151;-77
2022/09/09 02:03:00;;;;;;;;;;;14.40;99.90;;;;;;4953495;28;20154;-75
2022/09/09 02:05:39;;;;;;;32.20;9.90;;;14.40;99.90;;;;;;4956524;29;19927;-78
2022/09/09 02:08:19;;;;;;;29.85;11.43;;;14.40;99.90;;;;;;4956755;29;20082;-74
2022/09/09 02:11:00;;;;;;;31.33;10.77;;;14.40;99.90;;;;;;4956881;29;20122;-81
2022/09/09 02:13:26;;;;;;;26.10;10.77;;;14.40;99.90;;;;;;4956062;28;20055;-75
2022/09/09 02:16:01;;;;;;;27.52;10.48;;;14.40;99.90;;;;;;4957010;29;20130;-79
2022/09/09 02:18:40;;;;;;;28.85;11.07;;;14.40;99.90;;;;;;4956156;28;20126;-76
2022/09/09 02:21:07;;;;;;;28.55;10.93;;;14.40;99.90;;;;;;4939854;29;20494;-73
2022/09/09 02:23:34;;;;;;;28.17;10.30;;;14.40;99.90;;;;;;4938799;29;20051;-74
2022/09/09 02:26:01;;;;;;;28.42;10.45;;;14.50;99.90;;;;;;4956220;29;20091;-74
2022/09/09 02:28:29;;;;;;;;;;;14.40;99.90;;;;;;4956333;29;20062;-74
2022/09/09 02:30:58;;;;;;;27.25;10.30;;;14.50;99.90;;;;;;4939643;29;19970;-74
2022/09/09 02:33:28;;;;;;;26.55;10.10;;;14.40;99.90;;;;;;4956445;29;20329;-79
2022/09/09 02:36:01;;;;;;;28.77;10.40;;;14.40;99.90;;;;;;4956351;29;20047;-74
2022/09/09 02:38:32;;;;;;;34.80;10.98;;;14.50;99.90;;;;;;4955876;28;20476;-74
2022/09/09 02:40:58;;;;;;;28.27;10.95;;;14.50;99.90;;;;;;4938997;28;20388;-74
2022/09/09 02:43:24;;;;;;;29.10;10.70;;;14.50;99.90;;;;;;4955962;29;20122;-81
2022/09/09 02:45:59;;;;;;;28.77;11.48;;;14.50;99.90;;;;;;4956845;29;20357;-74
2022/09/09 02:48:50;;;;;;;29.60;10.48;;;14.50;99.90;;;;;;4938982;29;20055;-80
2022/09/09 02:51:28;;;;;;;25.80;10.27;;;14.50;99.90;;;;;;4956408;29;20377;-75
2022/09/09 02:54:08;;;;;;;26.75;10.70;;;14.40;99.90;;;;;;4956261;28;20187;-74
2022/09/09 02:56:40;;;;;;;25.35;10.05;;;14.50;99.90;;;;;;4955813;29;20162;-72
2022/09/09 02:59:05;;;;;;;23.10;9.63;;;14.50;99.90;;;;;;4956238;29;20383;-73
2022/09/09 03:01:31;;;;;;;25.13;10.07;;;14.50;99.90;;;;;;4955813;29;20130;-74
2022/09/09 03:03:57;;;;;;;29.88;9.50;;;14.50;99.90;;;;;;4955569;29;20047;-74
2022/09/09 03:06:23;;;;;;;24.08;9.57;;;14.50;99.90;;;;;;4938468;29;20054;-73
2022/09/09 03:08:49;;;;;;;21.70;9.43;;;14.50;99.90;;;;;;4939159;29;20065;-73
2022/09/09 03:11:16;;;;;;;23.73;9.30;;;14.50;99.90;;;;;;4923071;29;20055;-73
2022/09/09 03:13:42;;;;;;;;;;;14.60;99.90;;;;;;4938392;29;20106;-76
2022/09/09 03:16:08;;;;;;;22.83;8.03;;;14.50;99.90;;;;;;4954921;28;20239;-73
2022/09/09 03:18:34;;;;;;;18.02;8.35;;;14.50;99.90;;;;;;4955875;29;20047;-73
2022/09/09 03:21:00;;;;;;;23.13;8.32;;;14.50;99.90;;;;;;4955899;29;20420;-73
2022/09/09 03:23:26;;;;;;;22.40;8.40;;;14.50;99.90;;;;;;4938440;29;20051;-73
2022/09/09 03:25:52;;;;;;;20.05;8.10;;;14.50;99.90;;;;;;4938359;29;20070;-73
2022/09/09 03:28:18;;;;;;;24.83;8.48;;;14.50;99.90;;;;;;4938654;29;20063;-73
2022/09/09 03:30:44;;;;;;;22.48;7.45;;;14.50;99.90;;;;;;4938637;29;20074;-71
2022/09/09 03:33:10;;;;;;;23.03;8.03;;;14.50;99.90;;;;;;4937903;29;20046;-73
2022/09/09 03:35:36;;;;;;;24.50;8.90;;;14.50;99.90;;;;;;4955341;29;20046;-72
2022/09/09 03:38:01;;;;;;;20.63;7.78;;;14.50;99.90;;;;;;4955212;29;20054;-75
2022/09/09 03:40:27;;;;;;;20.75;7.97;;;14.50;99.90;;;;;;4954738;29;20061;-74
2022/09/09 03:42:53;;;;;;;21.27;9.20;;;14.50;99.90;;;;;;4938257;29;20058;-73
2022/09/09 03:45:18;;;;;;;22.38;8.25;;;14.50;99.90;;;;;;4922256;29;20047;-72
2022/09/09 03:47:44;;;;;;;23.17;8.40;;;14.50;99.90;;;;;;4937724;29;20047;-73
2022/09/09 03:50:10;;;;;;;21.40;8.73;;;14.50;99.90;;;;;;4941063;29;20150;-73
2022/09/09 03:52:38;;;;;;;25.95;8.50;;;14.50;99.90;;;;;;4961015;29;20079;-74
2022/09/09 03:55:05;;;;;;;23.27;9.45;;;14.50;99.90;;;;;;4939316;29;20063;-74
2022/09/09 03:57:31;;;;;;;27.38;9.50;;;14.50;99.90;;;;;;4938606;29;20095;-74
2022/09/09 03:59:59;;;;;;;28.52;10.55;;;14.60;99.90;;;;;;4955404;29;20059;-74
2022/09/09 04:02:24;;;;;;;28.25;11.32;;;14.50;99.90;;;;;;4955878;29;20059;-73
2022/09/09 04:04:50;;;;;;;32.47;11.55;;;14.40;99.90;;;;;;4922832;29;20201;-73
2022/09/09 04:07:15;;;;;;;31.35;11.02;;;14.50;99.90;;;;;;4966514;29;20047;-73
2022/09/09 04:09:41;;;;;;;30.60;11.13;;;14.40;99.90;;;;;;4952149;29;20063;-73
2022/09/09 04:12:07;;;;;;;37.55;12.60;;;14.40;99.90;;;;;;4958587;29;20113;-71
2022/09/09 04:14:33;;;;;;;33.35;12.50;;;14.30;99.90;;;;;;4938099;29;20059;-78
2022/09/09 04:16:59;;;;;;;32.97;11.95;;;14.30;99.90;;;;;;4958539;29;20130;-74
2022/09/09 04:19:25;;;;;;;30.42;11.95;;;14.30;99.90;;;;;;4949714;29;20055;-72
2022/09/09 04:21:51;;;;;;;28.65;12.35;;;14.30;99.90;;;;;;4950343;29;20043;-72
2022/09/09 04:24:17;;;;;;;31.38;11.65;;;14.30;99.90;;;;;;4936441;29;20074;-73
2022/09/09 04:26:43;;;;;;;32.95;12.98;;;14.30;99.90;;;;;;4970400;28;20051;-73
2022/09/09 04:29:09;;;;;;;30.98;11.90;;;14.20;99.90;;;;;;4968785;29;20090;-78
2022/09/09 04:31:35;;;;;;;30.27;12.53;;;14.20;99.90;;;;;;4972779;29;20039;-77
2022/09/09 04:34:05;;;;;;;37.47;12.30;;;14.20;99.90;;;;;;4972475;28;20174;-73
2022/09/09 04:36:32;;;;;;;31.92;11.52;;;14.20;99.90;;;;;;4970760;29;20442;-74
2022/09/09 04:38:57;;;;;;;33.80;11.75;;;14.10;99.90;;;;;;4968023;28;20110;-73
2022/09/09 04:41:23;;;;;;;35.00;12.45;;;14.10;99.90;;;;;;4962391;29;20055;-73
2022/09/09 04:43:49;;;;;;;35.03;11.98;;;14.10;99.90;;;;;;4942534;29;20459;-73
2022/09/09 04:46:18;;;;;;;33.17;11.77;;;14.10;99.90;;;;;;4959360;29;20086;-71
2022/09/09 04:48:44;;;;;;;31.75;11.40;;;14.10;99.90;;;;;;4959427;29;20051;-71
2022/09/09 04:51:13;;;;;;;37.72;12.73;;;14.00;99.90;;;;;;4926320;29;20059;-75
2022/09/09 04:53:40;;;;;;;27.17;11.32;;;14.00;99.90;;;;;;4941326;29;20040;-73
2022/09/09 04:56:14;;;;;;;36.95;12.38;;;14.00;99.90;;;;;;4957966;28;20047;-71
2022/09/09 04:58:44;;;;;;;30.95;11.18;;;13.90;99.90;;;;;;4958752;28;20170;-72
2022/09/09 05:01:11;;;;;;;27.50;10.00;;;13.90;99.90;;;;;;4958937;28;20476;-73
2022/09/09 05:03:37;;;;;;;32.17;11.23;;;13.90;99.90;;;;;;4957585;29;20507;-77
2022/09/09 05:06:21;;;;;;;28.27;11.20;;;13.90;99.90;;;;;;4958821;29;20047;-72
2022/09/09 05:08:48;;;;;;;27.70;10.90;;;13.90;99.90;;;;;;4958417;28;20110;-71
2022/09/09 05:11:16;;;;;;;24.75;10.20;;;13.80;99.90;;;;;;4958873;29;20419;-72
2022/09/09 05:13:42;;;;;;;29.80;10.45;;;13.80;99.90;;;;;;4958504;29;20055;-71
2022/09/09 05:16:10;;;;;;;30.00;11.52;;;13.80;99.90;;;;;;4941179;29;20051;-72
2022/09/09 05:18:40;;;;;;;35.05;11.65;;;13.80;99.90;;;;;;4958629;29;20050;-76
2022/09/09 05:21:06;;;;;;;28.83;11.23;;;13.70;99.90;;;;;;4940843;29;20055;-73
2022/09/09 05:23:33;;;;;;;30.20;10.88;;;13.70;99.90;;;;;;4958115;28;20043;-72
2022/09/09 05:26:07;;;;;;;30.75;10.38;;;13.80;99.90;;;;;;4958387;28;20137;-73
2022/09/09 05:28:37;;;;;;;27.98;11.15;;;13.80;99.90;;;;;;4957473;28;20404;-71
2022/09/09 05:31:07;;;;;;;33.40;11.75;;;13.80;99.90;;;;;;4958074;29;20051;-72
2022/09/09 05:33:34;;;;;;;29.10;10.50;;;13.80;99.90;;;;;;4957960;29;20044;-72
2022/09/09 05:36:01;;;;;;;;;;;13.80;99.90;;;;;;4910084;29;20055;-70
2022/09/09 05:38:27;;;;;;;28.98;9.90;;;13.90;99.90;;;;;;4940699;29;19939;-73
2022/09/09 05:40:53;;;;;;;30.60;11.13;;;14.00;99.90;;;;;;4924709;29;20047;-72
2022/09/09 05:43:20;;;;;;;27.63;10.57;;;14.10;99.90;;;;;;4940522;29;20051;-71
2022/09/09 05:45:59;;;;;;;34.75;10.98;;;14.10;99.90;;;;;;4940140;29;20160;-72
2022/09/09 05:48:28;;;;;;;27.52;11.18;;;14.20;99.90;;;;;;4957702;29;20090;-71
2022/09/09 05:50:54;;;;;;;28.63;10.73;;;14.30;99.90;;;;;;4940111;29;20050;-70
2022/09/09 05:53:20;;;;;;;22.77;9.48;;;14.30;99.90;;;;;;4957213;29;20050;-71
2022/09/09 05:55:46;;;;;;;28.48;10.13;;;14.40;99.90;;;;;;4940085;29;20059;-71
2022/09/09 05:58:12;;;;;;;25.35;10.73;;;14.40;99.90;;;;;;4940577;29;20062;-70
2022/09/09 06:00:38;;;;;;;27.63;10.70;;;14.40;99.90;;;;;;4957785;29;20467;-77
2022/09/09 06:03:04;;;;;;;26.83;10.90;;;14.40;99.90;;;;;;4956932;29;20133;-72
2022/09/09 06:05:30;;;;;;;28.02;11.48;;;14.50;99.90;;;;;;4956686;29;20061;-73
2022/09/09 06:07:56;;;;;;;29.92;10.93;;;14.50;99.90;;;;;;4924723;29;20158;-73
2022/09/09 06:10:22;;;;;;;26.50;10.90;;;14.50;99.90;;;;;;4956731;29;20055;-73
2022/09/09 06:12:48;;;;;;;26.80;10.85;;;14.50;99.90;;;;;;4956764;28;20433;-72
2022/09/09 06:15:13;;;;;;;25.20;10.70;;;14.50;99.90;;;;;;4940010;29;20087;-71
2022/09/09 06:17:41;;;;;;;36.25;11.90;;;14.50;99.90;;;;;;4939472;29;20064;-71
2022/09/09 06:20:09;;;;;;;27.60;10.52;;;14.60;99.90;;;;;;4939929;29;20114;-71
2022/09/09 06:22:34;;;;;;;24.85;10.73;;;14.60;99.90;;;;;;4956278;29;20463;-71
2022/09/09 06:25:01;;;;;;;28.35;10.90;;;14.80;99.90;;;;;;4956514;29;20047;-70
2022/09/09 06:27:28;;;;;;;26.13;10.03;;;14.80;99.90;;;;;;4956831;29;20062;-72
2022/09/09 06:29:54;;;;;;;26.90;10.65;;;14.80;99.90;;;;;;4939426;29;20058;-71
2022/09/09 06:32:19;;;;;;;23.75;10.77;;;14.80;99.90;;;;;;4957011;29;20043;-71
2022/09/09 06:34:47;;;;;;;27.98;10.30;;;14.70;99.90;;;;;;4939911;29;20468;-72
2022/09/09 06:37:12;;;;;;;23.42;10.02;;;14.70;99.90;;;;;;4956426;29;20118;-71
2022/09/09 06:39:38;;;;;;;26.52;10.60;;;14.70;99.90;;;;;;4956441;29;20484;-71
2022/09/09 06:42:04;;;;;;;27.80;11.45;;;14.70;99.90;;;;;;4956623;29;20437;-72
2022/09/09 06:44:31;;;;;;;27.42;10.95;;;14.70;99.90;;;;;;4939069;29;20102;-72
2022/09/09 06:46:57;;;;;;;25.83;9.82;;;14.70;99.90;;;;;;4940662;29;20058;-71
2022/09/09 06:49:23;;;;;;;29.48;11.32;;;14.90;99.90;;;;;;4943087;29;20114;-70
2022/09/09 06:51:49;;;;;;;27.17;10.20;;;14.90;99.90;;;;;;4942459;29;20051;-72
2022/09/09 06:54:14;;;;;;;20.95;9.52;;;15.00;99.90;;;;;;4923770;29;20127;-71
2022/09/09 06:56:42;;;;;;;22.35;9.82;;;15.00;99.90;;;;;;4939092;29;20082;-72
2022/09/09 06:59:09;;;;;;;24.02;9.82;;;15.10;99.90;;;;;;4939783;29;20433;-72
2022/09/09 07:01:37;;;;;;;;;;;15.20;99.90;;;;;;4941048;29;20116;-72
2022/09/09 07:04:07;;;;;;;21.05;8.85;;;15.20;99.90;;;;;;4957123;29;20252;-71
2022/09/09 07:06:38;;;;;;;23.75;9.98;;;15.30;99.90;;;;;;4940211;29;20055;-73
2022/09/09 07:09:08;;;;;;;23.88;9.60;;;15.30;99.90;;;;;;4958858;29;20043;-72
2022/09/09 07:11:41;;;;;;;27.98;9.95;;;15.40;99.90;;;;;;4939808;29;20125;-73
2022/09/09 07:14:08;;;;;;;24.95;9.52;;;15.40;99.90;;;;;;4939857;29;20046;-72
2022/09/09 07:16:36;;;;;;;26.65;10.68;;;15.40;99.90;;;;;;4956417;29;20047;-71
2022/09/09 07:19:03;;;;;;;21.60;8.68;;;15.40;99.90;;;;;;4956328;29;20097;-71
2022/09/09 07:21:30;;;;;;;26.42;10.18;;;15.50;99.90;;;;;;4938929;29;20086;-74
2022/09/09 07:23:56;;;;;;;27.90;10.95;;;15.50;99.90;;;;;;4957448;29;20143;-71
2022/09/09 07:26:25;;;;;;;26.67;9.88;;;15.50;99.90;;;;;;4956773;29;20050;-71
2022/09/09 07:28:51;;;;;;;28.10;10.57;;;15.50;99.90;;;;;;4955474;29;20065;-72
2022/09/09 07:31:22;;;;;;;22.83;10.40;;;15.60;99.90;;;;;;4939252;29;20539;-70
2022/09/09 07:33:48;;;;;;;25.75;10.50;;;15.60;99.90;;;;;;4939153;29;20054;-78
2022/09/09 07:36:15;;;;;;;24.83;10.77;;;15.80;99.90;;;;;;4940201;29;20050;-71
2022/09/09 07:38:43;;;;;;;23.08;9.77;;;15.90;99.90;;;;;;4957420;29;20322;-72
2022/09/09 07:41:14;;;;;;;33.80;11.40;;;16.00;99.90;;;;;;4956703;29;20182;-73
2022/09/09 07:43:41;;;;;;;27.00;10.27;;;16.20;99.90;;;;;;4939358;29;20460;-72
2022/09/09 07:46:09;;;;;;;26.42;10.27;;;16.30;99.90;;;;;;4939566;29;20137;-72
2022/09/09 07:48:35;;;;;;;24.98;9.77;;;16.40;99.90;;;;;;4956994;29;20043;-72
2022/09/09 07:51:05;;;;;;;24.33;9.65;;;16.40;99.90;;;;;;4941371;29;20061;-71
2022/09/09 07:53:31;;;;;;;30.42;10.38;;;16.40;99.90;;;;;;4939164;29;20403;-72
2022/09/09 07:56:07;;;;;;;26.23;9.68;;;16.30;99.90;;;;;;4939003;29;20155;-71
2022/09/09 07:58:33;;;;;;;21.67;9.63;;;16.30;99.90;;;;;;4938816;29;20495;-71
2022/09/09 08:00:59;;;;;;;22.17;10.20;;;16.50;99.90;;;;;;4939097;29;20555;-72
2022/09/09 08:03:24;;;;;;;28.60;11.07;;;16.50;99.90;;;;;;4938156;29;20122;-70
2022/09/09 08:05:51;;;;;;;28.38;10.18;;;16.60;99.90;;;;;;4955907;29;20094;-76
2022/09/09 08:08:17;;;;;;;30.63;11.23;;;16.80;99.90;;;;;;4938337;29;20051;-72
2022/09/09 08:10:43;;;;;;;31.70;10.47;;;16.90;99.90;;;;;;4955908;29;20126;-71
2022/09/09 08:13:09;;;;;;;26.67;10.25;;;17.00;99.90;;;;;;4955672;29;20197;-72
2022/09/09 08:15:35;;;;;;;25.60;8.32;;;17.10;99.90;;;;;;4955621;29;20113;-70
2022/09/09 08:18:05;;;;;;;25.13;8.48;;;17.30;99.90;;;;;;4906604;29;20083;-71
2022/09/09 08:20:31;;;;;;;20.73;7.95;;;17.40;99.90;;;;;;4924318;29;20043;-72
2022/09/09 08:22:56;;;;;;;19.88;7.63;;;17.30;99.90;;;;;;4955774;29;20047;-73
2022/09/09 08:25:22;;;;;;;24.83;6.95;;;17.50;99.90;;;;;;4938589;29;20532;-72
2022/09/09 08:27:48;;;;;;;22.83;7.18;;;17.50;99.90;;;;;;4955926;29;20134;-73
2022/09/09 08:30:14;;;;;;;20.37;6.77;;;17.50;99.90;;;;;;4955582;29;20106;-72
2022/09/09 08:32:39;;;;;;;25.73;7.43;;;17.60;99.90;;;;;;4938594;29;20050;-72
2022/09/09 08:35:06;;;;;;;21.30;7.38;;;17.60;99.90;;;;;;4956305;29;20551;-71
2022/09/09 08:37:32;;;;;;;26.25;6.82;;;17.80;99.90;;;;;;4939186;29;20079;-72
2022/09/09 08:39:57;;;;;;;19.48;6.00;;;17.90;99.90;;;;;;4938552;29;20051;-74
2022/09/09 08:42:29;;;;;;;21.30;6.10;;;18.00;99.90;;;;;;4955368;29;20062;-72
2022/09/09 08:45:11;;;;;;;18.65;6.63;;;18.20;99.90;;;;;;4956625;29;20051;-77
2022/09/09 08:48:08;;;;;;;18.48;5.65;;;18.40;99.90;;;;;;4956603;29;20373;-74
2022/09/09 08:50:40;;;;;;;21.48;6.00;;;18.40;99.90;;;;;;4939698;29;20535;-72
2022/09/09 08:53:16;;;;;;;21.35;5.53;;;18.20;99.90;;;;;;4956478;29;20138;-71
2022/09/09 08:55:48;;;;;;;25.02;6.15;;;18.30;99.90;;;;;;4955863;29;20062;-75
2022/09/09 08:58:29;;;;;;;23.73;5.93;;;18.30;99.90;;;;;;4954414;29;20521;-70
2022/09/09 09:01:00;;;;;;;18.63;6.07;;;18.40;99.90;;;;;;4955019;29;20139;-72
2022/09/09 09:03:44;;;;;;;22.02;5.97;;;18.30;99.90;;;;;;4955656;29;20051;-73
2022/09/09 09:06:19;;;;;;;18.65;4.95;;;18.30;99.90;;;;;;4938604;28;20051;-73
2022/09/09 09:08:57;;;;;;;22.27;5.13;;;18.30;99.90;;;;;;4955480;29;20106;-72
2022/09/09 09:11:23;;;;;;;19.63;5.07;;;18.50;99.90;;;;;;4937961;29;20058;-74
2022/09/09 09:13:57;;;;;;;23.07;5.20;;;18.60;99.90;;;;;;4957212;28;20074;-75
2022/09/09 09:16:38;;;;;;;21.17;5.05;;;18.60;99.90;;;;;;4958632;29;20059;-73
2022/09/09 09:19:04;;;;;;;17.48;5.18;;;18.70;99.90;;;;;;4941726;29;20047;-74
2022/09/09 09:21:33;;;;;;;23.58;5.63;;;18.70;99.90;;;;;;4958617;29;20107;-73
2022/09/09 09:24:00;;;;;;;21.88;5.00;;;18.70;99.90;;;;;;4958120;29;20050;-75
2022/09/09 09:26:32;;;;;;;24.55;5.53;;;19.00;99.90;;;;;;4958493;29;20050;-72
2022/09/09 09:29:00;;;;;;;21.13;4.63;;;19.20;99.90;;;;;;4959633;29;20431;-76
2022/09/09 09:31:29;;;;;;;17.13;5.13;;;19.20;99.90;;;;;;4958232;29;20456;-74
2022/09/09 09:33:56;;;;;;;18.83;4.30;;;19.20;99.90;;;;;;4925276;29;20043;-74
2022/09/09 09:36:58;;;;;;;16.80;4.50;;;19.40;99.90;;;;;;4957632;29;20106;-73
2022/09/09 09:39:29;;;;;;;19.45;4.53;;;19.20;99.90;;;;;;4919938;29;20063;-74
2022/09/09 09:41:56;;;;;;;20.35;4.82;;;19.10;99.90;;;;;;4959394;29;20051;-74
2022/09/09 09:44:23;;;;;;;15.95;3.83;;;18.80;99.90;;;;;;4927833;29;20047;-74
2022/09/09 09:46:49;;;;;;;14.60;3.30;;;18.70;99.90;;;;;;4961641;29;20047;-76
2022/09/09 09:49:15;;;;;;;20.20;4.53;;;18.70;99.90;;;;;;4959583;29;20077;-79
2022/09/09 09:51:40;;;;;;;21.43;4.50;;;18.70;99.90;;;;;;4940007;29;20051;-76
2022/09/09 09:54:13;;;;;;;28.93;5.97;;;18.70;99.90;;;;;;4957075;29;20058;-74
2022/09/09 09:56:40;;;;;;;20.27;4.95;;;18.80;99.90;;;;;;4957031;29;20507;-73
2022/09/09 09:59:05;;;;;;;19.02;4.70;;;18.80;99.90;;;;;;4956794;29;20047;-78
2022/09/09 10:01:33;;;;;;;23.53;4.53;;;18.80;99.90;;;;;;4940223;29;20066;-75
2022/09/09 10:04:12;;;;;;;23.77;5.18;;;19.00;99.90;;;;;;4939706;29;20372;-75
2022/09/09 10:06:39;;;;;;;24.48;4.10;;;19.20;99.90;;;;;;4939976;29;20051;-75
2022/09/09 10:09:32;;;;;;;24.75;4.60;;;19.20;99.90;;;;;;4956727;29;20057;-79
2022/09/09 10:12:06;;;;;;;18.55;4.97;;;19.30;99.90;;;;;;4932632;29;20173;-75
2022/09/09 10:14:47;;;;;;;19.67;4.50;;;19.20;99.90;;;;;;4956625;29;20054;-75
2022/09/09 10:17:35;;;;;;;19.00;4.25;;;19.30;99.90;;;;;;4939368;29;20050;-74
2022/09/09 10:20:15;;;;;;;17.85;3.78;;;19.40;99.90;;;;;;4956935;29;20058;-75
2022/09/09 10:22:56;;;;;;;11.43;3.40;;;19.50;99.90;;;;;;4939428;29;20051;-77
2022/09/09 10:25:33;;;;;;;21.38;4.47;;;19.60;99.90;;;;;;4938148;29;20130;-75
2022/09/09 10:28:25;;;;;;;18.90;3.65;;;19.80;99.90;;;;;;4940081;29;20044;-77
2022/09/09 10:31:12;;;;;;;19.73;3.78;;;19.90;99.90;;;;;;4956089;29;20106;-76
2022/09/09 10:34:01;;;;;;;11.70;2.97;;;20.00;99.90;;;;;;4923593;29;20114;-75
2022/09/09 10:36:29;;;;;;;20.83;3.35;;;20.00;99.90;;;;;;4923940;29;20375;-76
2022/09/09 10:39:18;;;;;;;17.98;3.38;;;20.00;99.90;;;;;;4956077;29;20126;-78
2022/09/09 10:41:55;;;;;;;16.38;3.47;;;19.90;99.90;;;;;;4938836;29;20134;-74
2022/09/09 10:44:35;;;;;;;16.60;3.38;;;19.70;99.90;;;;;;4938622;29;20479;-77
2022/09/09 10:47:15;;;;;;;18.38;3.90;;;19.50;99.90;;;;;;4938625;29;20102;-78
2022/09/09 10:50:20;;;;;;;21.48;3.42;;;19.50;99.90;;;;;;4956248;29;20051;-76
2022/09/09 10:53:08;;;;;;;18.30;3.85;;;19.40;99.90;;;;;;4905257;29;20091;-80
2022/09/09 10:55:42;;;;;;;13.52;2.83;;;19.60;99.90;;;;;;4956231;28;20058;-76
2022/09/09 10:58:14;;;;;;;14.23;3.40;;;19.80;99.90;;;;;;4956646;29;20058;-75
2022/09/09 11:00:47;;;;;;;19.33;3.35;;;20.00;99.90;;;;;;4939118;29;20102;-75
2022/09/09 11:03:29;;;;;;;15.98;2.97;;;20.00;99.90;;;;;;4955739;29;20464;-77
2022/09/09 11:06:05;;;;;;;13.73;2.75;;;19.90;99.90;;;;;;4956198;29;20539;-75
2022/09/09 11:08:37;;;;;;;15.25;2.90;;;19.90;99.90;;;;;;4956208;29;20119;-74
2022/09/09 11:11:29;;;;;;;16.77;3.05;;;19.70;99.90;;;;;;4955752;29;20051;-75
2022/09/09 11:14:12;;;;;;;13.93;3.25;;;19.60;99.90;;;;;;4938874;29;20070;-77
2022/09/09 11:16:53;;;;;;;14.48;3.00;;;19.50;99.90;;;;;;4956179;29;20101;-77
2022/09/09 11:19:35;;;;;;;16.48;3.53;;;19.50;99.90;;;;;;4939338;29;20404;-77
2022/09/09 11:22:36;;;;;;;14.18;3.25;;;19.30;99.90;;;;;;4924352;29;20061;-80
2022/09/09 11:25:17;;;;;;;20.10;3.10;;;19.30;99.90;;;;;;4953922;29;20063;-77
2022/09/09 11:28:14;;;;;;;19.48;3.35;;;19.20;99.90;;;;;;4956481;29;20103;-76
2022/09/09 11:30:55;;;;;;;17.95;2.97;;;19.20;99.90;;;;;;4956196;29;20050;-78
2022/09/09 11:33:41;;;;;;;16.42;3.50;;;19.40;99.90;;;;;;4957139;29;20043;-79
2022/09/09 11:36:07;;;;;;;;;;;19.60;99.90;;;;;;4956961;28;20091;-79
2022/09/09 11:38:46;;;;;;;15.57;3.05;;;19.80;99.90;;;;;;4956368;29;19934;-75
2022/09/09 11:41:15;;;;;;;15.77;3.20;;;19.80;99.90;;;;;;4939196;29;20133;-77
2022/09/09 11:43:51;;;;;;;16.60;3.28;;;20.10;99.90;;;;;;4955754;29;20051;-81
2022/09/09 11:46:20;;;;;;;10.35;2.60;;;20.50;99.90;;;;;;4940109;29;20059;-77
2022/09/09 11:49:00;;;;;;;12.05;2.97;;;20.80;99.90;;;;;;4956729;29;20425;-75
2022/09/09 11:51:29;;;;;;;14.18;2.88;;;21.00;99.90;;;;;;4955129;29;20484;-79
2022/09/09 11:53:58;;;;;;;12.77;2.47;;;;;;;;;;4957926;29;20043;-77
2022/09/09 11:56:33;;;;;;;10.57;2.60;;;20.90;99.90;;;;;;4958476;29;20074;-79
2022/09/09 11:59:20;;;;;;;13.65;2.33;;;20.90;99.90;;;;;;4941613;29;20476;-79
2022/09/09 12:01:55;;;;;;;12.73;1.98;;;20.70;99.90;;;;;;4956811;29;20120;-79
2022/09/09 12:04:24;;;;;;;12.10;2.35;;;20.50;99.90;;;;;;4924743;29;20055;-75
2022/09/09 12:07:05;;;;;;;11.50;2.20;;;20.40;99.90;;;;;;4957166;29;20400;-78
2022/09/09 12:09:44;;;;;;;14.25;2.88;;;20.40;99.90;;;;;;4958286;29;20051;-79
2022/09/09 12:12:13;;;;;;;13.75;2.53;;;20.20;99.90;;;;;;4958783;29;20150;-80
2022/09/09 12:14:43;;;;;;;21.55;2.60;;;20.30;99.90;;;;;;4940585;29;20055;-81
2022/09/09 12:17:14;;;;;;;16.88;2.20;;;20.50;99.90;;;;;;4939655;29;20090;-79
2022/09/09 12:19:47;;;;;;;16.17;2.50;;;20.70;99.90;;;;;;4941945;28;20384;-79
2022/09/09 12:22:44;;;;;;;10.65;2.20;;;20.90;99.90;;;;;;4939701;29;20420;-77
2022/09/09 12:25:16;;;;;;;15.75;2.22;;;21.00;99.90;;;;;;4939448;29;20058;-80
2022/09/09 12:28:01;;;;;;;12.98;2.10;;;20.90;99.90;;;;;;4940770;29;20047;-77
2022/09/09 12:30:37;;;;;;;9.27;1.77;;;20.80;99.90;;;;;;4922625;29;20050;-78
2022/09/09 12:33:13;;;;;;;8.70;1.67;;;20.40;99.90;;;;;;4923282;29;20477;-78
2022/09/09 12:35:43;;;;;;;9.00;1.52;;;20.50;99.90;;;;;;4938871;29;20117;-74
2022/09/09 12:38:15;;;;;;;4.10;1.50;;;20.60;99.90;;;;;;4940713;29;20106;-78
2022/09/09 12:40:42;;;;;;;11.63;2.20;;;20.70;99.90;;;;;;4960883;29;20130;-80
2022/09/09 12:43:20;;;;;;;10.40;1.90;;;20.90;99.90;;;;;;4936227;29;20059;-79
2022/09/09 12:45:56;;;;;;;13.48;2.50;;;21.10;99.90;;;;;;4933892;29;20103;-76
2022/09/09 12:48:28;;;;;;;11.57;2.13;;;20.80;99.90;;;;;;4927926;29;20105;-78
2022/09/09 12:50:55;;;;;;;13.52;1.90;;;20.70;99.90;;;;;;4964953;29;20048;-79
2022/09/09 12:53:34;;;;;;;13.35;2.53;;;20.70;99.90;;;;;;4962879;29;20499;-80
2022/09/09 12:56:08;;;;;;;10.60;1.90;;;20.50;99.90;;;;;;4962689;29;20051;-80
2022/09/09 12:58:36;;;;;;;12.32;1.80;;;20.70;99.90;;;;;;4960507;29;20055;-81
2022/09/09 13:01:05;;;;;;;17.52;1.92;;;20.80;99.90;;;;;;4961558;29;20055;-80